createdAt,value
2022-08-07T00:01:43.089Z,18.39
2022-08-07T00:06:29.623Z,18.17
2022-08-07T00:11:36.011Z,18.07
2022-08-07T00:16:50.388Z,18.08
2022-08-07T00:21:56.078Z,17.93
2022-08-07T00:27:07.136Z,17.92
2022-08-07T00:32:09.953Z,18.16
2022-08-07T00:37:18.499Z,18.22
2022-08-07T00:42:29.003Z,18.16
2022-08-07T00:48:08.090Z,18.04
2022-08-07T00:52:54.165Z,17.94
2022-08-07T00:57:56.375Z,17.85
2022-08-07T01:02:58.366Z,17.77
2022-08-07T01:08:00.417Z,17.66
2022-08-07T01:13:02.663Z,17.60
2022-08-07T01:18:06.175Z,17.48
2022-08-07T01:23:15.165Z,17.40
2022-08-07T01:28:17.744Z,17.48
2022-08-07T01:33:23.616Z,17.53
2022-08-07T01:38:34.594Z,17.61
2022-08-07T01:43:47.500Z,17.54
2022-08-07T01:48:49.709Z,17.44
2022-08-07T01:54:11.881Z,17.38
2022-08-07T01:59:30.986Z,17.25
2022-08-07T02:04:58.492Z,17.38
2022-08-07T02:10:06.518Z,17.53
2022-08-07T02:15:14.396Z,17.57
2022-08-07T02:20:23.760Z,17.51
2022-08-07T02:26:10.838Z,17.41
2022-08-07T02:30:54.954Z,17.18
2022-08-07T02:36:30.962Z,17.15
2022-08-07T02:41:23.114Z,17.24
2022-08-07T02:46:38.144Z,17.18
2022-08-07T02:51:52.668Z,17.08
2022-08-07T02:57:00.374Z,16.91
2022-08-07T03:02:03.156Z,16.86
2022-08-07T03:07:10.384Z,16.79
2022-08-07T03:12:22.390Z,16.80
2022-08-07T03:17:54.093Z,16.77
2022-08-07T03:22:59.743Z,16.65
2022-08-07T03:28:09.488Z,16.53
2022-08-07T03:33:32.254Z,16.47
2022-08-07T03:38:45.570Z,16.38
2022-08-07T03:43:56.877Z,16.35
2022-08-07T03:49:03.943Z,16.41
2022-08-07T03:54:35.786Z,16.50
2022-08-07T03:59:46.588Z,16.61
2022-08-07T04:05:06.113Z,16.54
2022-08-07T04:10:15.443Z,16.49
2022-08-07T04:15:23.859Z,16.61
2022-08-07T04:20:27.185Z,16.78
2022-08-07T04:25:31.051Z,16.86
2022-08-07T04:30:55.247Z,16.91
2022-08-07T04:36:06.637Z,17.00
2022-08-07T04:41:10.444Z,17.18
2022-08-07T04:46:53.945Z,17.46
2022-08-07T04:52:18.382Z,17.67
2022-08-07T04:58:11.332Z,17.93
2022-08-07T05:03:31.171Z,18.05
2022-08-07T05:09:01.121Z,18.23
2022-08-07T05:14:52.380Z,18.37
2022-08-07T05:19:48.503Z,18.54
2022-08-07T05:24:52.151Z,18.65
2022-08-07T05:29:56.689Z,18.70
2022-08-07T05:34:59.999Z,18.79
2022-08-07T05:40:13.581Z,18.93
2022-08-07T05:45:46.140Z,19.07
2022-08-07T05:50:50.575Z,19.15
2022-08-07T05:56:02.325Z,19.27
2022-08-07T06:01:12.548Z,19.42
2022-08-07T06:06:20.608Z,19.64
2022-08-07T06:11:25.535Z,19.83
2022-08-07T06:16:31.725Z,19.99
2022-08-07T06:22:14.545Z,20.32
2022-08-07T06:26:58.255Z,20.68
2022-08-07T06:32:01.507Z,20.96
2022-08-07T06:37:04.497Z,21.26
2022-08-07T06:42:19.569Z,21.45
2022-08-07T06:47:57.667Z,21.67
2022-08-07T06:54:11.527Z,21.96
2022-08-07T06:58:32.102Z,22.24
2022-08-07T07:03:49.901Z,22.40
2022-08-07T07:09:36.371Z,22.69
2022-08-07T07:15:08.582Z,22.90
2022-08-07T07:20:31.878Z,23.20
2022-08-07T07:26:35.419Z,23.46
2022-08-07T07:31:04.101Z,23.65
2022-08-07T07:36:12.799Z,23.80
2022-08-07T07:41:17.877Z,23.95
2022-08-07T07:46:37.635Z,24.17
2022-08-07T07:51:58.232Z,24.36
2022-08-07T07:57:01.809Z,24.58
2022-08-07T08:02:10.651Z,24.75
2022-08-07T08:07:15.389Z,25.02
2022-08-07T08:12:50.099Z,25.20
2022-08-07T08:17:57.249Z,25.31
2022-08-07T08:23:20.737Z,25.51
2022-08-07T08:28:38.714Z,25.67
2022-08-07T08:33:42.423Z,25.78
2022-08-07T08:38:51.860Z,25.83
2022-08-07T08:44:29.344Z,25.90
2022-08-07T08:50:05.335Z,26.08
2022-08-07T08:55:53.713Z,26.27
2022-08-07T09:00:51.806Z,26.50
2022-08-07T09:06:04.231Z,26.54
2022-08-07T09:11:11.593Z,26.66
2022-08-07T09:16:29.764Z,26.90
2022-08-07T09:24:28.255Z,27.01
2022-08-07T09:28:02.020Z,27.10
2022-08-07T09:33:52.783Z,27.16
2022-08-07T09:39:11.370Z,27.29
2022-08-07T09:50:34.411Z,27.32
2022-08-07T09:56:04.678Z,27.28
2022-08-07T10:01:51.762Z,27.35
2022-08-07T10:07:34.483Z,27.45
2022-08-07T10:13:29.799Z,27.53
2022-08-07T10:18:57.378Z,27.55
2022-08-07T10:24:22.043Z,27.68
2022-08-07T10:30:12.078Z,27.48
2022-08-07T10:35:55.870Z,27.57
2022-08-07T10:41:09.522Z,27.66
2022-08-07T10:46:26.023Z,27.94
2022-08-07T10:52:01.501Z,28.10
2022-08-07T10:57:34.827Z,28.26
2022-08-07T11:03:03.420Z,28.34
2022-08-07T11:08:40.378Z,28.20
2022-08-07T11:14:45.146Z,28.18
2022-08-07T11:19:53.119Z,28.30
2022-08-07T11:25:14.838Z,28.36
2022-08-07T11:30:39.160Z,28.62
2022-08-07T11:36:00.223Z,28.93
2022-08-07T11:41:28.353Z,29.08
2022-08-07T11:47:05.210Z,29.29
2022-08-07T11:52:29.135Z,29.27
2022-08-07T11:58:01.552Z,29.15
2022-08-07T12:03:41.555Z,29.24
2022-08-07T12:09:22.440Z,29.45
2022-08-07T12:14:35.162Z,29.32
2022-08-07T12:19:56.306Z,29.20
2022-08-07T12:26:22.057Z,29.38
2022-08-07T12:31:09.358Z,29.24
2022-08-07T12:36:15.955Z,29.41
2022-08-07T12:41:21.795Z,29.58
2022-08-07T12:46:50.913Z,29.74
2022-08-07T12:52:17.182Z,29.78
2022-08-07T12:57:38.714Z,29.66
2022-08-07T13:03:06.988Z,29.61
2022-08-07T13:08:26.749Z,29.51
2022-08-07T13:13:48.647Z,29.34
2022-08-07T13:19:04.568Z,29.43
2022-08-07T13:24:25.661Z,29.50
2022-08-07T13:29:42.464Z,29.50
2022-08-07T13:35:08.390Z,29.40
2022-08-07T13:40:41.737Z,29.40
2022-08-07T13:46:12.157Z,29.50
2022-08-07T13:51:27.235Z,29.48
2022-08-07T13:56:40.842Z,29.47
2022-08-07T14:02:05.363Z,29.60
2022-08-07T14:07:11.319Z,29.69
2022-08-07T14:12:28.232Z,29.58
2022-08-07T14:18:24.041Z,29.61
2022-08-07T14:23:59.099Z,29.57
2022-08-07T14:28:55.993Z,29.34
2022-08-07T14:34:07.340Z,29.15
2022-08-07T14:40:16.671Z,29.01
2022-08-07T14:44:40.732Z,28.94
2022-08-07T14:49:57.020Z,28.85
2022-08-07T14:55:02.933Z,28.75
2022-08-07T15:00:08.372Z,28.69
2022-08-07T15:10:59.076Z,28.47
2022-08-07T15:21:58.496Z,28.56
2022-08-07T15:27:19.906Z,28.65
2022-08-07T15:43:33.313Z,28.50
2022-08-07T15:54:11.968Z,28.46
2022-08-07T15:59:17.224Z,28.39
2022-08-07T16:04:20.910Z,28.33
2022-08-07T16:09:41.149Z,28.31
2022-08-07T16:15:05.933Z,28.34
2022-08-07T16:20:33.755Z,28.19
2022-08-07T16:25:59.583Z,28.18
2022-08-07T16:32:00.694Z,28.21
2022-08-07T16:38:03.891Z,28.13
2022-08-07T16:42:52.739Z,28.04
2022-08-07T16:48:15.156Z,28.01
2022-08-07T16:54:02.837Z,27.93
2022-08-07T16:59:24.626Z,27.91
2022-08-07T17:06:01.448Z,27.86
2022-08-07T17:10:54.759Z,27.77
2022-08-07T17:16:12.131Z,27.67
2022-08-07T17:21:19.076Z,27.57
2022-08-07T17:26:50.888Z,27.54
2022-08-07T17:32:30.526Z,27.45
2022-08-07T17:38:06.243Z,27.42
2022-08-07T17:43:18.481Z,27.30
2022-08-07T17:48:31.171Z,27.23
2022-08-07T17:54:02.026Z,27.16
2022-08-07T17:59:23.665Z,27.12
2022-08-07T18:04:34.424Z,27.00
2022-08-07T18:10:04.437Z,26.88
2022-08-07T18:15:11.469Z,26.82
2022-08-07T18:21:10.626Z,26.69
2022-08-07T18:25:48.591Z,26.66
2022-08-07T18:31:18.782Z,26.60
2022-08-07T18:36:33.788Z,26.48
2022-08-07T18:42:12.928Z,26.31
2022-08-07T18:47:26.395Z,26.13
2022-08-07T18:53:10.891Z,26.00
2022-08-07T18:58:51.092Z,25.87
2022-08-07T19:04:02.224Z,25.71
2022-08-07T19:09:56.292Z,25.45
2022-08-07T19:14:52.143Z,25.23
2022-08-07T19:20:29.258Z,25.05
2022-08-07T19:26:23.726Z,24.89
2022-08-07T19:31:37.172Z,24.79
2022-08-07T19:36:44.533Z,24.73
2022-08-07T19:42:08.115Z,24.64
2022-08-07T19:47:27.043Z,24.55
2022-08-07T19:52:31.198Z,24.40
2022-08-07T19:58:00.786Z,24.42
2022-08-07T20:03:35.454Z,24.40
2022-08-07T20:08:41.573Z,24.32
2022-08-07T20:13:55.214Z,24.19
2022-08-07T20:19:00.359Z,24.03
2022-08-07T20:24:06.678Z,23.92
2022-08-07T20:29:16.999Z,23.81
2022-08-07T20:34:50.244Z,23.68
2022-08-07T20:40:03.240Z,23.59
2022-08-07T20:45:33.771Z,23.48
2022-08-07T20:50:31.795Z,23.36
2022-08-07T20:55:37.249Z,23.28
2022-08-07T21:00:46.422Z,23.26
2022-08-07T21:05:56.245Z,23.24
2022-08-07T21:11:02.794Z,23.21
2022-08-07T21:16:08.617Z,23.16
2022-08-07T21:21:10.923Z,23.09
2022-08-07T21:26:30.980Z,23.01
2022-08-07T21:32:44.101Z,22.90
2022-08-07T21:37:58.383Z,22.73
2022-08-07T21:43:03.659Z,22.63
2022-08-07T21:48:27.718Z,22.56
2022-08-07T21:53:53.177Z,22.48
2022-08-07T21:59:08.354Z,22.37
2022-08-07T22:04:20.263Z,22.25
2022-08-07T22:09:26.468Z,22.10
2022-08-07T22:14:59.313Z,22.04
2022-08-07T22:20:31.634Z,21.94
2022-08-07T22:25:56.837Z,21.87
2022-08-07T22:31:06.994Z,21.80
2022-08-07T22:36:30.851Z,21.75
2022-08-07T22:42:03.958Z,21.68
2022-08-07T22:47:27.321Z,21.66
2022-08-07T22:52:57.245Z,21.61
2022-08-07T22:58:38.318Z,21.53
2022-08-07T23:04:06.662Z,21.38
2022-08-07T23:10:05.219Z,21.31
2022-08-07T23:15:02.149Z,21.24
2022-08-07T23:20:51.485Z,21.24
2022-08-07T23:26:13.342Z,21.14
2022-08-07T23:32:48.626Z,21.04
2022-08-07T23:37:22.365Z,20.90
2022-08-07T23:42:46.399Z,20.75
2022-08-07T23:48:01.712Z,20.62
2022-08-07T23:53:49.942Z,20.60
2022-08-07T23:59:10.748Z,20.64
